sensor_id;sensor_type;location;lat;lon;timestamp;temperature;humidity
21331;DHT22;10824;51.632;4.950;2023-12-29T00:02:18;11.10;99.90
21331;DHT22;10824;51.632;4.950;2023-12-29T00:04:45;11.10;99.90
21331;DHT22;10824;51.632;4.950;2023-12-29T00:07:12;11.10;99.90
21331;DHT22;10824;51.632;4.950;2023-12-29T00:09:39;11.00;99.90
21331;DHT22;10824;51.632;4.950;2023-12-29T00:12:08;11.00;99.90
21331;DHT22;10824;51.632;4.950;2023-12-29T00:14:39;11.00;99.90
21331;DHT22;10824;51.632;4.950;2023-12-29T00:17:07;11.00;99.90
21331;DHT22;10824;51.632;4.950;2023-12-29T00:19:34;11.00;99.90
21331;DHT22;10824;51.632;4.950;2023-12-29T00:22:01;10.90;99.90
21331;DHT22;10824;51.632;4.950;2023-12-29T00:24:30;10.90;99.90
21331;DHT22;10824;51.632;4.950;2023-12-29T00:27:01;10.90;99.90
21331;DHT22;10824;51.632;4.950;2023-12-29T00:29:29;10.80;99.90
21331;DHT22;10824;51.632;4.950;2023-12-29T00:32:01;10.90;99.90
21331;DHT22;10824;51.632;4.950;2023-12-29T00:34:31;10.80;99.90
21331;DHT22;10824;51.632;4.950;2023-12-29T00:37:00;10.90;99.90
21331;DHT22;10824;51.632;4.950;2023-12-29T00:39:27;10.80;99.90
21331;DHT22;10824;51.632;4.950;2023-12-29T00:41:58;10.70;99.90
21331;DHT22;10824;51.632;4.950;2023-12-29T00:44:25;10.80;99.90
21331;DHT22;10824;51.632;4.950;2023-12-29T00:46:52;10.80;99.90
21331;DHT22;10824;51.632;4.950;2023-12-29T00:49:20;10.70;99.90
21331;DHT22;10824;51.632;4.950;2023-12-29T00:51:48;10.80;99.90
21331;DHT22;10824;51.632;4.950;2023-12-29T00:54:16;10.70;99.90
21331;DHT22;10824;51.632;4.950;2023-12-29T00:56:50;10.80;99.90
21331;DHT22;10824;51.632;4.950;2023-12-29T00:59:20;10.70;99.90
21331;DHT22;10824;51.632;4.950;2023-12-29T01:01:47;10.80;99.90
21331;DHT22;10824;51.632;4.950;2023-12-29T01:04:14;10.80;99.90
21331;DHT22;10824;51.632;4.950;2023-12-29T01:06:41;10.80;99.90
21331;DHT22;10824;51.632;4.950;2023-12-29T01:09:08;10.80;99.90
21331;DHT22;10824;51.632;4.950;2023-12-29T01:11:37;10.70;99.90
21331;DHT22;10824;51.632;4.950;2023-12-29T01:14:04;10.70;99.90
21331;DHT22;10824;51.632;4.950;2023-12-29T01:16:33;10.60;99.90
21331;DHT22;10824;51.632;4.950;2023-12-29T01:19:00;10.60;99.90
21331;DHT22;10824;51.632;4.950;2023-12-29T01:21:27;10.50;99.90
21331;DHT22;10824;51.632;4.950;2023-12-29T01:23:55;10.40;99.90
21331;DHT22;10824;51.632;4.950;2023-12-29T01:26:22;10.30;99.90
21331;DHT22;10824;51.632;4.950;2023-12-29T01:28:49;10.30;99.90
21331;DHT22;10824;51.632;4.950;2023-12-29T01:31:17;10.30;99.90
21331;DHT22;10824;51.632;4.950;2023-12-29T01:33:44;10.30;99.90
21331;DHT22;10824;51.632;4.950;2023-12-29T01:36:18;10.20;99.90
21331;DHT22;10824;51.632;4.950;2023-12-29T01:38:51;10.20;99.90
21331;DHT22;10824;51.632;4.950;2023-12-29T01:41:22;10.20;99.90
21331;DHT22;10824;51.632;4.950;2023-12-29T01:46:30;10.20;99.90
21331;DHT22;10824;51.632;4.950;2023-12-29T01:48:58;10.20;99.90
21331;DHT22;10824;51.632;4.950;2023-12-29T01:51:27;10.30;99.90
21331;DHT22;10824;51.632;4.950;2023-12-29T01:53:56;10.30;99.90
21331;DHT22;10824;51.632;4.950;2023-12-29T01:56:25;10.30;99.90
21331;DHT22;10824;51.632;4.950;2023-12-29T01:58:52;10.40;99.90
21331;DHT22;10824;51.632;4.950;2023-12-29T02:01:28;10.40;99.90
21331;DHT22;10824;51.632;4.950;2023-12-29T02:03:56;10.40;99.90
21331;DHT22;10824;51.632;4.950;2023-12-29T02:06:24;10.40;99.90
21331;DHT22;10824;51.632;4.950;2023-12-29T02:08:52;10.40;99.90
21331;DHT22;10824;51.632;4.950;2023-12-29T02:11:19;10.40;99.90
21331;DHT22;10824;51.632;4.950;2023-12-29T02:13:46;10.40;99.90
21331;DHT22;10824;51.632;4.950;2023-12-29T02:16:38;10.40;99.90
21331;DHT22;10824;51.632;4.950;2023-12-29T02:19:40;10.40;99.90
21331;DHT22;10824;51.632;4.950;2023-12-29T02:22:08;10.40;99.90
21331;DHT22;10824;51.632;4.950;2023-12-29T02:24:37;10.50;99.90
21331;DHT22;10824;51.632;4.950;2023-12-29T02:32:45;10.60;99.90
21331;DHT22;10824;51.632;4.950;2023-12-29T02:35:24;10.60;99.90
21331;DHT22;10824;51.632;4.950;2023-12-29T02:37:53;10.60;99.90
21331;DHT22;10824;51.632;4.950;2023-12-29T02:40:21;10.70;99.90
21331;DHT22;10824;51.632;4.950;2023-12-29T02:42:49;10.70;99.90
21331;DHT22;10824;51.632;4.950;2023-12-29T02:45:17;10.70;99.90
21331;DHT22;10824;51.632;4.950;2023-12-29T02:47:45;10.70;99.90
21331;DHT22;10824;51.632;4.950;2023-12-29T02:50:12;10.70;99.90
21331;DHT22;10824;51.632;4.950;2023-12-29T02:52:39;10.60;99.90
21331;DHT22;10824;51.632;4.950;2023-12-29T02:55:07;10.60;99.90
21331;DHT22;10824;51.632;4.950;2023-12-29T02:57:34;10.60;99.90
21331;DHT22;10824;51.632;4.950;2023-12-29T03:00:02;10.50;99.90
21331;DHT22;10824;51.632;4.950;2023-12-29T03:02:30;10.50;99.90
21331;DHT22;10824;51.632;4.950;2023-12-29T03:04:58;10.60;99.90
21331;DHT22;10824;51.632;4.950;2023-12-29T03:07:25;10.60;99.90
21331;DHT22;10824;51.632;4.950;2023-12-29T03:09:52;10.60;99.90
21331;DHT22;10824;51.632;4.950;2023-12-29T03:12:19;10.60;99.90
21331;DHT22;10824;51.632;4.950;2023-12-29T03:14:46;10.60;99.90
21331;DHT22;10824;51.632;4.950;2023-12-29T03:17:14;10.60;99.90
21331;DHT22;10824;51.632;4.950;2023-12-29T03:19:41;10.60;99.90
21331;DHT22;10824;51.632;4.950;2023-12-29T03:22:09;10.50;99.90
21331;DHT22;10824;51.632;4.950;2023-12-29T03:24:40;10.50;99.90
21331;DHT22;10824;51.632;4.950;2023-12-29T03:27:08;10.50;99.90
21331;DHT22;10824;51.632;4.950;2023-12-29T03:29:36;10.60;99.90
21331;DHT22;10824;51.632;4.950;2023-12-29T03:32:03;10.60;99.90
21331;DHT22;10824;51.632;4.950;2023-12-29T03:34:31;10.60;99.90
21331;DHT22;10824;51.632;4.950;2023-12-29T03:36:59;10.60;99.90
21331;DHT22;10824;51.632;4.950;2023-12-29T03:39:26;10.50;99.90
21331;DHT22;10824;51.632;4.950;2023-12-29T03:41:53;10.60;99.90
21331;DHT22;10824;51.632;4.950;2023-12-29T03:44:22;10.60;99.90
21331;DHT22;10824;51.632;4.950;2023-12-29T03:46:49;10.60;99.90
21331;DHT22;10824;51.632;4.950;2023-12-29T03:49:18;10.60;99.90
21331;DHT22;10824;51.632;4.950;2023-12-29T03:51:46;10.60;99.90
21331;DHT22;10824;51.632;4.950;2023-12-29T03:54:14;10.60;99.90
21331;DHT22;10824;51.632;4.950;2023-12-29T03:56:42;10.60;99.90
21331;DHT22;10824;51.632;4.950;2023-12-29T03:59:09;10.60;99.90
21331;DHT22;10824;51.632;4.950;2023-12-29T04:01:36;10.60;99.90
21331;DHT22;10824;51.632;4.950;2023-12-29T04:04:04;10.60;99.90
21331;DHT22;10824;51.632;4.950;2023-12-29T04:06:31;10.60;99.90
21331;DHT22;10824;51.632;4.950;2023-12-29T04:08:58;10.50;99.90
21331;DHT22;10824;51.632;4.950;2023-12-29T04:11:25;10.60;99.90
21331;DHT22;10824;51.632;4.950;2023-12-29T04:13:52;10.50;99.90
21331;DHT22;10824;51.632;4.950;2023-12-29T04:16:19;10.50;99.90
21331;DHT22;10824;51.632;4.950;2023-12-29T04:18:47;10.50;99.90
21331;DHT22;10824;51.632;4.950;2023-12-29T04:21:15;10.50;99.90
21331;DHT22;10824;51.632;4.950;2023-12-29T04:23:42;10.50;99.90
21331;DHT22;10824;51.632;4.950;2023-12-29T04:26:09;10.50;99.90
21331;DHT22;10824;51.632;4.950;2023-12-29T04:28:36;10.40;99.90
21331;DHT22;10824;51.632;4.950;2023-12-29T04:31:04;10.50;99.90
21331;DHT22;10824;51.632;4.950;2023-12-29T04:33:31;10.50;99.90
21331;DHT22;10824;51.632;4.950;2023-12-29T04:35:58;10.50;99.90
21331;DHT22;10824;51.632;4.950;2023-12-29T04:38:25;10.40;99.90
21331;DHT22;10824;51.632;4.950;2023-12-29T04:40:52;10.40;99.90
21331;DHT22;10824;51.632;4.950;2023-12-29T04:43:20;10.40;99.90
21331;DHT22;10824;51.632;4.950;2023-12-29T04:45:47;10.30;99.90
21331;DHT22;10824;51.632;4.950;2023-12-29T04:48:14;10.30;99.90
21331;DHT22;10824;51.632;4.950;2023-12-29T04:50:42;10.30;99.90
21331;DHT22;10824;51.632;4.950;2023-12-29T04:53:09;10.30;99.90
21331;DHT22;10824;51.632;4.950;2023-12-29T04:55:36;10.30;99.90
21331;DHT22;10824;51.632;4.950;2023-12-29T04:58:03;10.30;99.90
21331;DHT22;10824;51.632;4.950;2023-12-29T05:00:31;10.30;99.90
21331;DHT22;10824;51.632;4.950;2023-12-29T05:02:58;10.30;99.90
21331;DHT22;10824;51.632;4.950;2023-12-29T05:05:25;10.30;99.90
21331;DHT22;10824;51.632;4.950;2023-12-29T05:07:52;10.30;99.90
21331;DHT22;10824;51.632;4.950;2023-12-29T05:10:19;10.20;99.90
21331;DHT22;10824;51.632;4.950;2023-12-29T05:12:46;10.30;99.90
21331;DHT22;10824;51.632;4.950;2023-12-29T05:15:13;10.20;99.90
21331;DHT22;10824;51.632;4.950;2023-12-29T05:17:40;10.30;99.90
21331;DHT22;10824;51.632;4.950;2023-12-29T05:20:08;10.30;99.90
21331;DHT22;10824;51.632;4.950;2023-12-29T05:22:35;10.30;99.90
21331;DHT22;10824;51.632;4.950;2023-12-29T05:25:03;10.30;99.90
21331;DHT22;10824;51.632;4.950;2023-12-29T05:27:30;10.30;99.90
21331;DHT22;10824;51.632;4.950;2023-12-29T05:30:00;10.30;99.90
21331;DHT22;10824;51.632;4.950;2023-12-29T05:32:27;10.30;99.90
21331;DHT22;10824;51.632;4.950;2023-12-29T05:34:55;10.30;99.90
21331;DHT22;10824;51.632;4.950;2023-12-29T05:37:22;10.20;99.90
21331;DHT22;10824;51.632;4.950;2023-12-29T05:39:49;10.20;99.90
21331;DHT22;10824;51.632;4.950;2023-12-29T05:42:16;10.20;99.90
21331;DHT22;10824;51.632;4.950;2023-12-29T05:44:43;10.20;99.90
21331;DHT22;10824;51.632;4.950;2023-12-29T05:47:11;10.20;99.90
21331;DHT22;10824;51.632;4.950;2023-12-29T05:49:38;10.10;99.90
21331;DHT22;10824;51.632;4.950;2023-12-29T05:52:06;10.10;99.90
21331;DHT22;10824;51.632;4.950;2023-12-29T05:54:34;10.10;99.90
21331;DHT22;10824;51.632;4.950;2023-12-29T05:57:01;10.10;99.90
21331;DHT22;10824;51.632;4.950;2023-12-29T05:59:29;10.20;99.90
21331;DHT22;10824;51.632;4.950;2023-12-29T06:01:56;10.20;99.90
21331;DHT22;10824;51.632;4.950;2023-12-29T06:04:23;10.20;99.90
21331;DHT22;10824;51.632;4.950;2023-12-29T06:06:50;10.20;99.90
21331;DHT22;10824;51.632;4.950;2023-12-29T06:09:18;10.10;99.90
21331;DHT22;10824;51.632;4.950;2023-12-29T06:11:45;10.00;99.90
21331;DHT22;10824;51.632;4.950;2023-12-29T06:14:12;9.90;99.90
21331;DHT22;10824;51.632;4.950;2023-12-29T06:16:39;9.80;99.90
21331;DHT22;10824;51.632;4.950;2023-12-29T06:19:07;9.80;99.90
21331;DHT22;10824;51.632;4.950;2023-12-29T06:21:40;9.80;99.90
21331;DHT22;10824;51.632;4.950;2023-12-29T06:24:09;9.80;99.90
21331;DHT22;10824;51.632;4.950;2023-12-29T06:26:36;9.70;99.90
21331;DHT22;10824;51.632;4.950;2023-12-29T06:29:09;9.70;99.90
21331;DHT22;10824;51.632;4.950;2023-12-29T06:31:36;9.70;99.90
21331;DHT22;10824;51.632;4.950;2023-12-29T06:34:06;9.70;99.90
21331;DHT22;10824;51.632;4.950;2023-12-29T06:36:33;9.80;99.90
21331;DHT22;10824;51.632;4.950;2023-12-29T06:39:00;9.80;99.90
21331;DHT22;10824;51.632;4.950;2023-12-29T06:41:27;9.80;99.90
21331;DHT22;10824;51.632;4.950;2023-12-29T06:43:54;9.90;99.90
21331;DHT22;10824;51.632;4.950;2023-12-29T06:46:22;9.90;99.90
21331;DHT22;10824;51.632;4.950;2023-12-29T06:48:48;9.90;99.90
21331;DHT22;10824;51.632;4.950;2023-12-29T06:51:17;9.90;99.90
21331;DHT22;10824;51.632;4.950;2023-12-29T06:53:46;9.80;99.90
21331;DHT22;10824;51.632;4.950;2023-12-29T06:56:17;9.90;99.90
21331;DHT22;10824;51.632;4.950;2023-12-29T06:58:45;9.90;99.90
21331;DHT22;10824;51.632;4.950;2023-12-29T07:01:13;9.90;99.90
21331;DHT22;10824;51.632;4.950;2023-12-29T07:03:40;10.00;99.90
21331;DHT22;10824;51.632;4.950;2023-12-29T07:06:09;10.00;99.90
21331;DHT22;10824;51.632;4.950;2023-12-29T07:08:36;10.10;99.90
21331;DHT22;10824;51.632;4.950;2023-12-29T07:11:03;10.10;99.90
21331;DHT22;10824;51.632;4.950;2023-12-29T07:13:30;10.10;99.90
21331;DHT22;10824;51.632;4.950;2023-12-29T07:15:58;10.10;99.90
21331;DHT22;10824;51.632;4.950;2023-12-29T07:18:25;10.10;99.90
21331;DHT22;10824;51.632;4.950;2023-12-29T07:20:52;10.10;99.90
21331;DHT22;10824;51.632;4.950;2023-12-29T07:23:19;10.10;99.90
21331;DHT22;10824;51.632;4.950;2023-12-29T07:25:48;10.00;99.90
21331;DHT22;10824;51.632;4.950;2023-12-29T07:28:15;10.00;99.90
21331;DHT22;10824;51.632;4.950;2023-12-29T07:30:42;10.00;99.90
21331;DHT22;10824;51.632;4.950;2023-12-29T07:33:09;10.10;99.90
21331;DHT22;10824;51.632;4.950;2023-12-29T07:35:36;10.10;99.90
21331;DHT22;10824;51.632;4.950;2023-12-29T07:38:04;10.10;99.90
21331;DHT22;10824;51.632;4.950;2023-12-29T07:40:31;10.10;99.90
21331;DHT22;10824;51.632;4.950;2023-12-29T07:42:58;10.10;99.90
21331;DHT22;10824;51.632;4.950;2023-12-29T07:45:25;10.10;99.90
21331;DHT22;10824;51.632;4.950;2023-12-29T07:47:52;10.20;99.90
21331;DHT22;10824;51.632;4.950;2023-12-29T07:50:19;10.20;99.90
21331;DHT22;10824;51.632;4.950;2023-12-29T07:52:47;10.10;99.90
21331;DHT22;10824;51.632;4.950;2023-12-29T07:55:14;10.10;99.90
21331;DHT22;10824;51.632;4.950;2023-12-29T07:57:45;10.20;99.90
21331;DHT22;10824;51.632;4.950;2023-12-29T08:00:17;10.20;99.90
21331;DHT22;10824;51.632;4.950;2023-12-29T08:02:44;10.20;99.90
21331;DHT22;10824;51.632;4.950;2023-12-29T08:05:12;10.20;99.90
21331;DHT22;10824;51.632;4.950;2023-12-29T08:07:39;10.20;99.90
21331;DHT22;10824;51.632;4.950;2023-12-29T08:10:06;10.20;99.90
21331;DHT22;10824;51.632;4.950;2023-12-29T08:12:34;10.20;99.90
21331;DHT22;10824;51.632;4.950;2023-12-29T08:15:03;10.10;99.90
21331;DHT22;10824;51.632;4.950;2023-12-29T08:17:30;10.10;99.90
21331;DHT22;10824;51.632;4.950;2023-12-29T08:19:58;10.10;99.90
21331;DHT22;10824;51.632;4.950;2023-12-29T08:22:29;10.10;99.90
21331;DHT22;10824;51.632;4.950;2023-12-29T08:24:56;10.10;99.90
21331;DHT22;10824;51.632;4.950;2023-12-29T08:27:25;10.10;99.90
21331;DHT22;10824;51.632;4.950;2023-12-29T08:29:55;10.10;99.90
21331;DHT22;10824;51.632;4.950;2023-12-29T08:32:22;10.10;99.90
21331;DHT22;10824;51.632;4.950;2023-12-29T08:34:49;10.10;99.90
21331;DHT22;10824;51.632;4.950;2023-12-29T08:37:17;10.10;99.90
21331;DHT22;10824;51.632;4.950;2023-12-29T08:39:47;10.10;99.90
21331;DHT22;10824;51.632;4.950;2023-12-29T08:42:15;10.20;99.90
21331;DHT22;10824;51.632;4.950;2023-12-29T08:44:42;10.20;99.90
21331;DHT22;10824;51.632;4.950;2023-12-29T08:47:09;10.20;99.90
21331;DHT22;10824;51.632;4.950;2023-12-29T08:49:37;10.20;99.90
21331;DHT22;10824;51.632;4.950;2023-12-29T08:52:05;10.20;99.90
21331;DHT22;10824;51.632;4.950;2023-12-29T08:54:32;10.20;99.90
21331;DHT22;10824;51.632;4.950;2023-12-29T08:56:59;10.20;99.90
21331;DHT22;10824;51.632;4.950;2023-12-29T08:59:26;10.20;99.90
21331;DHT22;10824;51.632;4.950;2023-12-29T09:01:53;10.20;99.90
21331;DHT22;10824;51.632;4.950;2023-12-29T09:04:21;10.30;99.90
21331;DHT22;10824;51.632;4.950;2023-12-29T09:06:48;10.30;99.90
21331;DHT22;10824;51.632;4.950;2023-12-29T09:09:16;10.30;99.90
21331;DHT22;10824;51.632;4.950;2023-12-29T09:11:44;10.30;99.90
21331;DHT22;10824;51.632;4.950;2023-12-29T09:14:11;10.30;99.90
21331;DHT22;10824;51.632;4.950;2023-12-29T09:16:38;10.30;99.90
21331;DHT22;10824;51.632;4.950;2023-12-29T09:19:10;10.30;99.90
21331;DHT22;10824;51.632;4.950;2023-12-29T09:21:56;10.30;99.90
21331;DHT22;10824;51.632;4.950;2023-12-29T09:24:24;10.30;99.90
21331;DHT22;10824;51.632;4.950;2023-12-29T09:26:51;10.30;99.90
21331;DHT22;10824;51.632;4.950;2023-12-29T09:29:19;10.30;99.90
21331;DHT22;10824;51.632;4.950;2023-12-29T09:31:46;10.30;99.90
21331;DHT22;10824;51.632;4.950;2023-12-29T09:34:14;10.30;99.90
21331;DHT22;10824;51.632;4.950;2023-12-29T09:36:41;10.40;99.90
21331;DHT22;10824;51.632;4.950;2023-12-29T09:39:08;10.40;99.90
21331;DHT22;10824;51.632;4.950;2023-12-29T09:41:39;10.40;99.90
21331;DHT22;10824;51.632;4.950;2023-12-29T09:44:13;10.40;99.90
21331;DHT22;10824;51.632;4.950;2023-12-29T09:46:42;10.40;99.90
21331;DHT22;10824;51.632;4.950;2023-12-29T09:49:09;10.50;99.90
21331;DHT22;10824;51.632;4.950;2023-12-29T09:51:37;10.50;99.90
21331;DHT22;10824;51.632;4.950;2023-12-29T09:54:05;10.50;99.90
21331;DHT22;10824;51.632;4.950;2023-12-29T09:56:32;10.50;99.90
21331;DHT22;10824;51.632;4.950;2023-12-29T09:59:01;10.50;99.90
21331;DHT22;10824;51.632;4.950;2023-12-29T10:01:30;10.60;99.90
21331;DHT22;10824;51.632;4.950;2023-12-29T10:03:59;10.60;99.90
21331;DHT22;10824;51.632;4.950;2023-12-29T10:06:26;10.60;99.90
21331;DHT22;10824;51.632;4.950;2023-12-29T10:08:55;10.60;99.90
21331;DHT22;10824;51.632;4.950;2023-12-29T10:11:24;10.60;99.90
21331;DHT22;10824;51.632;4.950;2023-12-29T10:13:54;10.70;99.90
21331;DHT22;10824;51.632;4.950;2023-12-29T10:16:27;10.60;99.90
21331;DHT22;10824;51.632;4.950;2023-12-29T10:19:07;10.60;99.90
21331;DHT22;10824;51.632;4.950;2023-12-29T10:21:57;10.70;99.90
21331;DHT22;10824;51.632;4.950;2023-12-29T10:24:29;10.70;99.90
21331;DHT22;10824;51.632;4.950;2023-12-29T10:26:57;10.70;99.90
21331;DHT22;10824;51.632;4.950;2023-12-29T10:29:24;10.70;99.90
21331;DHT22;10824;51.632;4.950;2023-12-29T10:31:52;10.70;99.90
21331;DHT22;10824;51.632;4.950;2023-12-29T10:34:20;10.70;99.90
21331;DHT22;10824;51.632;4.950;2023-12-29T10:43:47;10.80;99.90
21331;DHT22;10824;51.632;4.950;2023-12-29T10:46:18;10.80;99.90
21331;DHT22;10824;51.632;4.950;2023-12-29T10:48:46;10.80;99.90
21331;DHT22;10824;51.632;4.950;2023-12-29T10:51:13;10.80;99.90
21331;DHT22;10824;51.632;4.950;2023-12-29T10:53:40;10.80;99.90
21331;DHT22;10824;51.632;4.950;2023-12-29T10:56:18;10.90;99.90
21331;DHT22;10824;51.632;4.950;2023-12-29T10:59:05;10.90;99.90
21331;DHT22;10824;51.632;4.950;2023-12-29T11:01:40;10.90;99.90
21331;DHT22;10824;51.632;4.950;2023-12-29T11:04:08;10.90;99.90
21331;DHT22;10824;51.632;4.950;2023-12-29T11:06:44;10.90;99.90
21331;DHT22;10824;51.632;4.950;2023-12-29T11:09:29;11.00;99.90
21331;DHT22;10824;51.632;4.950;2023-12-29T11:12:01;11.00;99.90
21331;DHT22;10824;51.632;4.950;2023-12-29T11:14:29;11.00;99.90
21331;DHT22;10824;51.632;4.950;2023-12-29T11:16:58;11.00;99.90
21331;DHT22;10824;51.632;4.950;2023-12-29T11:19:27;11.10;99.90
21331;DHT22;10824;51.632;4.950;2023-12-29T11:21:55;11.00;99.90
21331;DHT22;10824;51.632;4.950;2023-12-29T11:24:23;11.10;99.90
21331;DHT22;10824;51.632;4.950;2023-12-29T11:27:05;11.10;99.90
21331;DHT22;10824;51.632;4.950;2023-12-29T11:29:35;11.10;99.90
21331;DHT22;10824;51.632;4.950;2023-12-29T11:32:04;11.10;99.90
21331;DHT22;10824;51.632;4.950;2023-12-29T11:34:37;11.20;99.90
21331;DHT22;10824;51.632;4.950;2023-12-29T11:43:57;11.20;99.90
21331;DHT22;10824;51.632;4.950;2023-12-29T11:46:38;11.30;99.90
21331;DHT22;10824;51.632;4.950;2023-12-29T11:49:06;11.20;99.90
21331;DHT22;10824;51.632;4.950;2023-12-29T11:51:43;11.30;99.90
21331;DHT22;10824;51.632;4.950;2023-12-29T11:54:22;11.30;99.90
21331;DHT22;10824;51.632;4.950;2023-12-29T11:56:54;11.20;99.90
21331;DHT22;10824;51.632;4.950;2023-12-29T11:59:25;11.30;99.90
21331;DHT22;10824;51.632;4.950;2023-12-29T12:02:00;11.20;99.90
21331;DHT22;10824;51.632;4.950;2023-12-29T12:04:38;11.20;99.90
21331;DHT22;10824;51.632;4.950;2023-12-29T12:12:51;11.20;99.90
21331;DHT22;10824;51.632;4.950;2023-12-29T12:18:03;11.20;99.90
21331;DHT22;10824;51.632;4.950;2023-12-29T12:20:50;11.20;99.90
21331;DHT22;10824;51.632;4.950;2023-12-29T12:23:17;11.10;99.90
21331;DHT22;10824;51.632;4.950;2023-12-29T12:25:53;11.20;99.90
21331;DHT22;10824;51.632;4.950;2023-12-29T12:28:24;11.10;99.90
21331;DHT22;10824;51.632;4.950;2023-12-29T12:30:51;11.20;99.90
21331;DHT22;10824;51.632;4.950;2023-12-29T12:33:20;11.20;99.90
21331;DHT22;10824;51.632;4.950;2023-12-29T12:35:59;11.10;99.90
21331;DHT22;10824;51.632;4.950;2023-12-29T12:38:26;11.10;99.90
21331;DHT22;10824;51.632;4.950;2023-12-29T12:40:57;11.10;99.90
21331;DHT22;10824;51.632;4.950;2023-12-29T12:43:26;11.00;99.90
21331;DHT22;10824;51.632;4.950;2023-12-29T12:46:00;10.90;99.90
21331;DHT22;10824;51.632;4.950;2023-12-29T12:48:43;10.90;99.90
21331;DHT22;10824;51.632;4.950;2023-12-29T12:51:11;10.90;99.90
21331;DHT22;10824;51.632;4.950;2023-12-29T12:53:40;10.90;99.90
21331;DHT22;10824;51.632;4.950;2023-12-29T12:56:08;10.80;99.90
21331;DHT22;10824;51.632;4.950;2023-12-29T12:58:36;10.80;99.90
21331;DHT22;10824;51.632;4.950;2023-12-29T13:01:04;10.70;99.90
21331;DHT22;10824;51.632;4.950;2023-12-29T13:03:32;10.70;99.90
21331;DHT22;10824;51.632;4.950;2023-12-29T13:06:00;10.70;99.90
21331;DHT22;10824;51.632;4.950;2023-12-29T13:08:28;10.70;99.90
21331;DHT22;10824;51.632;4.950;2023-12-29T13:11:04;10.70;99.90
21331;DHT22;10824;51.632;4.950;2023-12-29T13:13:50;10.70;99.90
21331;DHT22;10824;51.632;4.950;2023-12-29T13:16:33;10.70;99.90
21331;DHT22;10824;51.632;4.950;2023-12-29T13:19:21;10.70;99.90
21331;DHT22;10824;51.632;4.950;2023-12-29T13:21:55;10.70;99.90
21331;DHT22;10824;51.632;4.950;2023-12-29T13:24:24;10.60;99.90
21331;DHT22;10824;51.632;4.950;2023-12-29T13:26:55;10.60;99.90
21331;DHT22;10824;51.632;4.950;2023-12-29T13:29:26;10.60;99.90
21331;DHT22;10824;51.632;4.950;2023-12-29T13:35:11;10.60;99.90
21331;DHT22;10824;51.632;4.950;2023-12-29T13:43:08;10.40;99.90
21331;DHT22;10824;51.632;4.950;2023-12-29T13:45:39;10.40;99.90
21331;DHT22;10824;51.632;4.950;2023-12-29T13:48:10;10.40;99.90
21331;DHT22;10824;51.632;4.950;2023-12-29T13:50:38;10.40;99.90
21331;DHT22;10824;51.632;4.950;2023-12-29T13:53:07;10.40;99.90
21331;DHT22;10824;51.632;4.950;2023-12-29T13:55:34;10.50;99.90
21331;DHT22;10824;51.632;4.950;2023-12-29T13:58:09;10.50;99.90
21331;DHT22;10824;51.632;4.950;2023-12-29T14:00:38;10.50;99.90
21331;DHT22;10824;51.632;4.950;2023-12-29T14:03:10;10.50;99.90
21331;DHT22;10824;51.632;4.950;2023-12-29T14:05:51;10.60;99.90
21331;DHT22;10824;51.632;4.950;2023-12-29T14:08:47;10.60;99.90
21331;DHT22;10824;51.632;4.950;2023-12-29T14:11:15;10.70;99.90
21331;DHT22;10824;51.632;4.950;2023-12-29T14:13:46;10.70;99.90
21331;DHT22;10824;51.632;4.950;2023-12-29T14:16:15;10.70;99.90
21331;DHT22;10824;51.632;4.950;2023-12-29T14:18:54;10.70;99.90
21331;DHT22;10824;51.632;4.950;2023-12-29T14:21:30;10.70;99.90
21331;DHT22;10824;51.632;4.950;2023-12-29T14:24:10;10.60;99.90
21331;DHT22;10824;51.632;4.950;2023-12-29T14:26:42;10.70;99.90
21331;DHT22;10824;51.632;4.950;2023-12-29T14:29:13;10.60;99.90
21331;DHT22;10824;51.632;4.950;2023-12-29T14:31:42;10.60;99.90
21331;DHT22;10824;51.632;4.950;2023-12-29T14:34:10;10.60;99.90
21331;DHT22;10824;51.632;4.950;2023-12-29T14:36:39;10.60;99.90
21331;DHT22;10824;51.632;4.950;2023-12-29T14:39:07;10.60;99.90
21331;DHT22;10824;51.632;4.950;2023-12-29T14:41:34;10.60;99.90
21331;DHT22;10824;51.632;4.950;2023-12-29T14:44:02;10.60;99.90
21331;DHT22;10824;51.632;4.950;2023-12-29T14:46:29;10.60;99.90
21331;DHT22;10824;51.632;4.950;2023-12-29T14:48:57;10.70;99.90
21331;DHT22;10824;51.632;4.950;2023-12-29T14:51:27;10.70;99.90
21331;DHT22;10824;51.632;4.950;2023-12-29T14:53:54;10.70;99.90
21331;DHT22;10824;51.632;4.950;2023-12-29T14:56:22;10.70;99.90
21331;DHT22;10824;51.632;4.950;2023-12-29T14:58:49;10.60;99.90
21331;DHT22;10824;51.632;4.950;2023-12-29T15:01:17;10.60;99.90
21331;DHT22;10824;51.632;4.950;2023-12-29T15:03:44;10.50;99.90
21331;DHT22;10824;51.632;4.950;2023-12-29T15:06:11;10.50;99.90
21331;DHT22;10824;51.632;4.950;2023-12-29T15:08:38;10.40;99.90
21331;DHT22;10824;51.632;4.950;2023-12-29T15:11:06;10.40;99.90
21331;DHT22;10824;51.632;4.950;2023-12-29T15:13:34;10.30;99.90
21331;DHT22;10824;51.632;4.950;2023-12-29T15:16:02;10.30;99.90
21331;DHT22;10824;51.632;4.950;2023-12-29T15:18:31;10.30;99.90
21331;DHT22;10824;51.632;4.950;2023-12-29T15:20:58;10.30;99.90
21331;DHT22;10824;51.632;4.950;2023-12-29T15:23:28;10.20;99.90
21331;DHT22;10824;51.632;4.950;2023-12-29T15:25:55;10.10;99.90
21331;DHT22;10824;51.632;4.950;2023-12-29T15:28:23;10.10;99.90
21331;DHT22;10824;51.632;4.950;2023-12-29T15:30:50;10.10;99.90
21331;DHT22;10824;51.632;4.950;2023-12-29T15:33:18;10.10;99.90
21331;DHT22;10824;51.632;4.950;2023-12-29T15:35:46;10.10;99.90
21331;DHT22;10824;51.632;4.950;2023-12-29T15:38:13;10.10;99.90
21331;DHT22;10824;51.632;4.950;2023-12-29T15:40:41;10.10;99.90
21331;DHT22;10824;51.632;4.950;2023-12-29T15:43:08;10.10;99.90
21331;DHT22;10824;51.632;4.950;2023-12-29T15:45:35;10.20;99.90
21331;DHT22;10824;51.632;4.950;2023-12-29T15:48:03;10.20;99.90
21331;DHT22;10824;51.632;4.950;2023-12-29T15:50:31;10.20;99.90
21331;DHT22;10824;51.632;4.950;2023-12-29T15:52:59;10.20;99.90
21331;DHT22;10824;51.632;4.950;2023-12-29T15:55:26;10.20;99.90
21331;DHT22;10824;51.632;4.950;2023-12-29T15:57:53;10.20;99.90
21331;DHT22;10824;51.632;4.950;2023-12-29T16:00:21;10.20;99.90
21331;DHT22;10824;51.632;4.950;2023-12-29T16:02:49;10.20;99.90
21331;DHT22;10824;51.632;4.950;2023-12-29T16:05:16;10.20;99.90
21331;DHT22;10824;51.632;4.950;2023-12-29T16:07:44;10.20;99.90
21331;DHT22;10824;51.632;4.950;2023-12-29T16:10:11;10.20;99.90
21331;DHT22;10824;51.632;4.950;2023-12-29T16:12:38;10.20;99.90
21331;DHT22;10824;51.632;4.950;2023-12-29T16:15:05;10.30;99.90
21331;DHT22;10824;51.632;4.950;2023-12-29T16:17:33;10.30;99.90
21331;DHT22;10824;51.632;4.950;2023-12-29T16:20:00;10.30;99.90
21331;DHT22;10824;51.632;4.950;2023-12-29T16:22:27;10.30;99.90
21331;DHT22;10824;51.632;4.950;2023-12-29T16:24:54;10.30;99.90